Private Wetterstation Wechselburg
Wetterdaten: Woche 25.04.22 - 01.05.22 (KW17)
Datum Zeit Temp. +2m Bodentemp. Temp.+5cm Temp. Wind Windchill X Diff Temp. Feuchte +2m Feuchte +5cm Luftdruck Regen Wind Richtung Sonnenschein Taupunkt Windchill Windben
25.04.2022 00:00 7,2 C 11,5 C 6,7 C 7,1 C 6,9 C 0,0 C 88 % 90 % 1007,6 hPa 0,0 l/m 0,0 km/h (0 Bft) N 0,00 h 5,4 C 6,9 C 0,0 km/h (0 Bft)
25.04.2022 01:00 7,2 C 11,5 C 6,9 C 7,2 C 7,1 C 0,0 C 88 % 90 % 1008,0 hPa 0,0 l/m 0,3 km/h (0 Bft) N 0,00 h 5,3 C 7,1 C 1,4 km/h (1 Bft)
25.04.2022 02:00 7,2 C 11,4 C 7,0 C 7,2 C 7,1 C 0,0 C 88 % 90 % 1008,1 hPa 0,0 l/m 0,3 km/h (0 Bft) N 0,00 h 5,4 C 7,1 C 0,8 km/h (0 Bft)
25.04.2022 03:00 7,2 C 11,4 C 7,1 C 7,4 C 7,4 C 0,2 C 88 % 90 % 1008,1 hPa 0,0 l/m 0,9 km/h (0 Bft) N-NW 0,00 h 5,4 C 7,4 C 1,7 km/h (1 Bft)
25.04.2022 04:00 7,2 C 11,4 C 7,3 C 7,6 C 7,6 C 0,4 C 88 % 90 % 1008,1 hPa 1,4 l/m 0,7 km/h (0 Bft) N 0,00 h 5,4 C 7,6 C 0,9 km/h (0 Bft)
25.04.2022 05:00 7,1 C 11,4 C 7,3 C 7,6 C 7,6 C 0,5 C 88 % 90 % 1008,5 hPa 0,7 l/m 0,6 km/h (0 Bft) O-NO 0,00 h 5,3 C 7,6 C 1,1 km/h (1 Bft)
25.04.2022 06:00 6,8 C 11,3 C 7,1 C 7,4 C 7,4 C 0,6 C 88 % 90 % 1009,0 hPa 0,7 l/m 1,5 km/h (1 Bft) NW 0,25 h 4,9 C 7,4 C 3,4 km/h (1 Bft)
25.04.2022 07:00 6,3 C 11,3 C 7,0 C 7,3 C 7,3 C 0,9 C 88 % 90 % 1009,5 hPa 0,0 l/m 1,5 km/h (1 Bft) N 0,00 h 4,5 C 7,3 C 2,2 km/h (1 Bft)
25.04.2022 08:00 5,7 C 11,3 C 6,6 C 6,7 C 6,7 C 1,0 C 88 % 90 % 1010,5 hPa 0,0 l/m 2,0 km/h (1 Bft) N-NO 0,00 h 3,9 C 6,7 C 3,0 km/h (1 Bft)
25.04.2022 09:00 5,5 C 11,3 C 6,8 C 7,3 C 7,3 C 1,8 C 88 % 90 % 1011,1 hPa 0,0 l/m 1,5 km/h (1 Bft) W 0,00 h 3,7 C 7,3 C 2,7 km/h (1 Bft)
25.04.2022 10:00 5,7 C 11,1 C 7,7 C 8,8 C 8,8 C 3,1 C 88 % 90 % 1011,9 hPa 0,0 l/m 1,4 km/h (1 Bft) N-NO 0,50 h 3,9 C 8,8 C 1,9 km/h (1 Bft)
25.04.2022 11:00 6,1 C 11,0 C 8,5 C 9,6 C 9,6 C 3,6 C 88 % 89 % 1012,7 hPa 0,0 l/m 1,1 km/h (1 Bft) NW 1,00 h 4,2 C 9,6 C 1,9 km/h (1 Bft)
25.04.2022 12:00 6,4 C 10,9 C 8,7 C 9,9 C 9,9 C 3,4 C 88 % 89 % 1013,2 hPa 0,0 l/m 1,5 km/h (1 Bft) NW 0,75 h 4,6 C 9,9 C 1,7 km/h (1 Bft)
25.04.2022 13:00 7,2 C 10,8 C 10,5 C 11,8 C 11,8 C 4,6 C 88 % 86 % 1013,6 hPa 0,0 l/m 1,9 km/h (1 Bft) SW 0,75 h 5,3 C 11,8 C 2,3 km/h (1 Bft)
25.04.2022 14:00 9,3 C 10,8 C 11,8 C 13,5 C 13,5 C 4,2 C 88 % 79 % 1014,4 hPa 0,0 l/m 1,9 km/h (1 Bft) S-SO 1,00 h 7,4 C 13,5 C 2,4 km/h (1 Bft)
25.04.2022 15:00 10,2 C 10,8 C 12,3 C 14,4 C 14,4 C 4,2 C 84 % 74 % 1014,6 hPa 0,0 l/m 1,2 km/h (1 Bft) W 0,92 h 7,7 C 14,4 C 1,4 km/h (1 Bft)
25.04.2022 16:00 11,0 C 10,9 C 12,6 C 15,8 C 15,8 C 4,8 C 80 % 73 % 1014,4 hPa 0,0 l/m 2,1 km/h (1 Bft) S 0,83 h 7,7 C 15,8 C 2,8 km/h (1 Bft)
25.04.2022 17:00 12,5 C 10,9 C 14,1 C 16,5 C 16,5 C 4,0 C 74 % 69 % 1014,3 hPa 0,0 l/m 3,7 km/h (1 Bft) S 0,67 h 7,9 C 16,5 C 3,8 km/h (1 Bft)
25.04.2022 18:00 13,1 C 10,9 C 12,8 C 15,8 C 15,8 C 2,7 C 70 % 71 % 1014,5 hPa 0,0 l/m 3,7 km/h (1 Bft) SW 0,50 h 7,6 C 15,8 C 4,4 km/h (1 Bft)
25.04.2022 19:00 12,1 C 11,0 C 11,6 C 14,0 C 14,0 C 1,9 C 71 % 74 % 1014,8 hPa 0,0 l/m 4,3 km/h (1 Bft) S-SW 0,92 h 7,0 C 14,0 C 5,3 km/h (1 Bft)
25.04.2022 20:00 10,3 C 11,1 C 9,4 C 10,1 C 9,7 C 0,0 C 77 % 80 % 1015,6 hPa 0,0 l/m 2,2 km/h (1 Bft) SW 0,00 h 6,4 C 9,7 C 2,0 km/h (1 Bft)
25.04.2022 21:00 8,4 C 11,2 C 6,6 C 7,8 C 6,7 C 0,0 C 80 % 85 % 1016,0 hPa 0,0 l/m 0,1 km/h (0 Bft) N 0,00 h 5,2 C 6,7 C 0,3 km/h (0 Bft)
25.04.2022 22:00 6,6 C 11,3 C 4,9 C 6,1 C 5,1 C 0,0 C 83 % 88 % 1016,3 hPa 0,0 l/m 0,0 km/h (0 Bft) N 0,00 h 4,0 C 5,1 C 0,0 km/h (0 Bft)
25.04.2022 23:00 5,3 C 11,4 C 3,8 C 4,8 C 3,9 C 0,0 C 85 % 89 % 1016,6 hPa 0,0 l/m 0,0 km/h (0 Bft) N 0,00 h 3,0 C 3,9 C 0,0 km/h (0 Bft)
26.04.2022 00:00 4,3 C 11,3 C 3,1 C 3,9 C 2,9 C 0,0 C 87 % 90 % 1016,9 hPa 0,0 l/m 0,0 km/h (0 Bft) N 0,00 h 2,3 C 2,9 C 0,0 km/h (0 Bft)
26.04.2022 01:00 3,5 C 11,2 C 2,3 C 3,0 C 2,0 C 0,0 C 87 % 90 % 1016,9 hPa 0,0 l/m 0,0 km/h (0 Bft) N 0,00 h 1,6 C 2,0 C 0,0 km/h (0 Bft)
26.04.2022 02:00 2,8 C 11,1 C 1,6 C 2,3 C 1,3 C 0,0 C 88 % 90 % 1017,0 hPa 0,0 l/m 0,0 km/h (0 Bft) N 0,00 h 0,9 C 1,3 C 0,0 km/h (0 Bft)
26.04.2022 03:00 2,1 C 11,0 C 1,1 C 1,6 C 0,6 C 0,0 C 88 % 90 % 1017,0 hPa 0,0 l/m 0,1 km/h (0 Bft) N 0,00 h 0,3 C 0,6 C 0,2 km/h (0 Bft)
26.04.2022 04:00 1,4 C 10,9 C 0,4 C 0,9 C -0,1 C 0,0 C 88 % 91 % 1016,9 hPa 0,0 l/m 0,0 km/h (0 Bft) N 0,00 h -0,4 C -0,1 C 0,0 km/h (0 Bft)
26.04.2022 05:00 0,7 C 10,8 C -0,0 C 0,2 C -0,8 C 0,0 C 89 % 91 % 1017,1 hPa 0,0 l/m 0,0 km/h (0 Bft) N 0,00 h -0,9 C -0,8 C 0,0 km/h (0 Bft)
26.04.2022 06:00 0,3 C 10,6 C 0,0 C -0,0 C -0,7 C 0,0 C 89 % 91 % 1017,5 hPa 0,0 l/m 0,0 km/h (0 Bft) N 0,00 h -1,3 C -0,7 C 0,0 km/h (0 Bft)
26.04.2022 07:00 0,8 C 10,4 C 2,8 C 8,0 C 8,0 C 7,2 C 89 % 90 % 1017,8 hPa 0,0 l/m 0,0 km/h (0 Bft) N 0,92 h -0,9 C 8,0 C 0,0 km/h (0 Bft)
26.04.2022 08:00 3,2 C 10,2 C 6,1 C 16,3 C 16,3 C 13,1 C 88 % 90 % 1017,8 hPa 0,0 l/m 0,0 km/h (0 Bft) N 1,00 h 1,4 C 16,3 C 0,0 km/h (0 Bft)
26.04.2022 09:00 7,5 C 10,0 C 8,7 C 15,4 C 15,4 C 8,0 C 88 % 89 % 1017,8 hPa 0,0 l/m 2,1 km/h (1 Bft) O-NO 1,00 h 5,6 C 15,4 C 3,4 km/h (1 Bft)
26.04.2022 10:00 11,8 C 10,1 C 11,7 C 15,2 C 15,2 C 3,4 C 80 % 77 % 1017,7 hPa 0,0 l/m 5,0 km/h (1 Bft) O-NO 0,58 h 8,3 C 15,2 C 6,5 km/h (2 Bft)
26.04.2022 11:00 12,8 C 10,3 C 15,3 C 15,9 C 15,9 C 3,1 C 69 % 61 % 1017,9 hPa 0,0 l/m 4,9 km/h (1 Bft) O-NO 0,50 h 7,3 C 15,9 C 6,2 km/h (2 Bft)
26.04.2022 12:00 13,3 C 10,5 C 15,0 C 16,1 C 16,1 C 2,8 C 66 % 60 % 1018,0 hPa 0,0 l/m 3,8 km/h (1 Bft) NO 0,17 h 7,1 C 16,1 C 4,3 km/h (1 Bft)
26.04.2022 13:00 14,8 C 10,6 C 17,7 C 20,3 C 20,3 C 5,4 C 62 % 53 % 1017,8 hPa 0,0 l/m 4,0 km/h (1 Bft) O-NO 1,00 h 7,7 C 20,3 C 5,6 km/h (1 Bft)
26.04.2022 14:00 15,3 C 10,8 C 18,1 C 20,2 C 20,2 C 4,9 C 60 % 51 % 1017,8 hPa 0,0 l/m 4,8 km/h (1 Bft) O-NO 1,00 h 7,6 C 20,2 C 6,8 km/h (2 Bft)
26.04.2022 15:00 15,0 C 11,0 C 16,3 C 18,9 C 18,9 C 3,9 C 60 % 55 % 1017,5 hPa 0,0 l/m 6,4 km/h (2 Bft) O-NO 0,75 h 7,3 C 18,9 C 7,1 km/h (2 Bft)
26.04.2022 16:00 15,0 C 11,2 C 16,1 C 18,4 C 18,4 C 3,4 C 59 % 55 % 1017,5 hPa 0,0 l/m 6,1 km/h (2 Bft) O-NO 0,50 h 7,1 C 18,4 C 7,2 km/h (2 Bft)
26.04.2022 17:00 15,2 C 11,4 C 16,4 C 18,1 C 18,1 C 3,0 C 58 % 53 % 1017,4 hPa 0,0 l/m 4,5 km/h (1 Bft) O-NO 0,25 h 7,0 C 18,1 C 5,7 km/h (1 Bft)
26.04.2022 18:00 14,4 C 11,5 C 14,4 C 15,2 C 15,2 C 0,8 C 59 % 57 % 1017,9 hPa 0,0 l/m 2,6 km/h (1 Bft) O-NO 0,00 h 6,4 C 15,2 C 2,7 km/h (1 Bft)
26.04.2022 19:00 13,7 C 11,7 C 13,2 C 13,8 C 13,8 C 0,1 C 61 % 62 % 1018,2 hPa 0,0 l/m 0,8 km/h (0 Bft) NO 0,00 h 6,4 C 13,8 C 1,6 km/h (1 Bft)
26.04.2022 20:00 12,8 C 11,8 C 11,9 C 12,8 C 12,7 C 0,1 C 65 % 68 % 1018,9 hPa 0,0 l/m 0,1 km/h (0 Bft) N 0,08 h 6,5 C 12,7 C 0,1 km/h (0 Bft)
26.04.2022 21:00 11,9 C 11,9 C 10,7 C 11,7 C 11,5 C 0,0 C 71 % 76 % 1019,8 hPa 0,0 l/m 0,0 km/h (0 Bft) N 0,00 h 6,7 C 11,5 C 0,0 km/h (0 Bft)
26.04.2022 22:00 11,2 C 11,9 C 10,2 C 11,1 C 10,9 C 0,0 C 72 % 77 % 1020,1 hPa 0,0 l/m 0,1 km/h (0 Bft) N 0,00 h 6,4 C 10,9 C 0,3 km/h (0 Bft)
26.04.2022 23:00 10,2 C 11,9 C 8,6 C 9,8 C 9,1 C 0,0 C 75 % 81 % 1020,5 hPa 0,0 l/m 0,0 km/h (0 Bft) N 0,00 h 5,9 C 9,1 C 0,0 km/h (0 Bft)
27.04.2022 00:00 8,1 C 12,0 C 6,3 C 7,6 C 6,5 C 0,0 C 79 % 85 % 1020,8 hPa 0,0 l/m 0,0 km/h (0 Bft) N 0,00 h 4,7 C 6,5 C 0,0 km/h (0 Bft)
27.04.2022 01:00 6,5 C 11,9 C 4,9 C 6,0 C 5,0 C 0,0 C 82 % 87 % 1020,9 hPa 0,0 l/m 0,0 km/h (0 Bft) N 0,00 h 3,6 C 5,0 C 0,0 km/h (0 Bft)
27.04.2022 02:00 5,1 C 11,9 C 3,8 C 4,6 C 3,6 C 0,0 C 84 % 89 % 1021,5 hPa 0,0 l/m 0,0 km/h (0 Bft) N 0,00 h 2,7 C 3,6 C 0,0 km/h (0 Bft)
27.04.2022 03:00 4,0 C 11,8 C 2,9 C 3,5 C 2,5 C 0,0 C 85 % 89 % 1021,6 hPa 0,0 l/m 0,0 km/h (0 Bft) N 0,00 h 1,8 C 2,5 C 0,0 km/h (0 Bft)
27.04.2022 04:00 3,2 C 11,7 C 2,2 C 2,7 C 1,6 C 0,0 C 86 % 90 % 1021,9 hPa 0,0 l/m 0,0 km/h (0 Bft) N 0,00 h 1,2 C 1,6 C 0,0 km/h (0 Bft)
27.04.2022 05:00 2,6 C 11,6 C 1,6 C 2,1 C 1,2 C 0,0 C 87 % 90 % 1022,6 hPa 0,0 l/m 0,0 km/h (0 Bft) N 0,00 h 0,7 C 1,2 C 0,0 km/h (0 Bft)
27.04.2022 06:00 2,3 C 11,4 C 2,1 C 2,2 C 1,7 C 0,0 C 88 % 90 % 1023,4 hPa 0,0 l/m 0,0 km/h (0 Bft) N 0,00 h 0,6 C 1,7 C 0,0 km/h (0 Bft)
27.04.2022 07:00 3,1 C 11,3 C 4,1 C 4,1 C 4,1 C 1,0 C 88 % 90 % 1024,0 hPa 0,0 l/m 0,5 km/h (0 Bft) O-NO 0,00 h 1,3 C 4,1 C 0,9 km/h (0 Bft)
27.04.2022 08:00 4,7 C 11,1 C 7,0 C 7,5 C 7,5 C 2,7 C 88 % 90 % 1024,8 hPa 0,0 l/m 0,5 km/h (0 Bft) S-SO 0,25 h 2,9 C 7,5 C 0,5 km/h (0 Bft)
27.04.2022 09:00 7,2 C 10,9 C 9,7 C 11,3 C 11,3 C 4,2 C 88 % 86 % 1025,4 hPa 0,0 l/m 0,5 km/h (0 Bft) N 1,00 h 5,3 C 11,3 C 0,8 km/h (0 Bft)
27.04.2022 10:00 10,5 C 10,9 C 12,3 C 15,3 C 15,3 C 4,7 C 85 % 79 % 1025,8 hPa 0,0 l/m 0,5 km/h (0 Bft) N 1,00 h 8,1 C 15,3 C 0,9 km/h (0 Bft)
27.04.2022 11:00 12,2 C 10,9 C 14,3 C 16,3 C 16,3 C 4,0 C 76 % 70 % 1026,0 hPa 0,0 l/m 1,0 km/h (0 Bft) O-NO 1,00 h 8,0 C 16,3 C 2,0 km/h (1 Bft)
27.04.2022 12:00 14,3 C 11,1 C 17,7 C 19,5 C 19,5 C 5,2 C 68 % 58 % 1025,9 hPa 0,0 l/m 2,5 km/h (1 Bft) O-NO 1,00 h 8,4 C 19,5 C 4,4 km/h (1 Bft)
27.04.2022 13:00 15,1 C 11,2 C 16,4 C 17,9 C 17,9 C 2,9 C 60 % 54 % 1025,8 hPa 0,0 l/m 1,9 km/h (1 Bft) W-SW 0,25 h 7,4 C 17,9 C 3,3 km/h (1 Bft)
27.04.2022 14:00 15,3 C 11,3 C 16,2 C 18,0 C 18,0 C 2,7 C 54 % 50 % 1026,1 hPa 0,0 l/m 2,2 km/h (1 Bft) O 0,33 h 5,9 C 18,0 C 3,3 km/h (1 Bft)
27.04.2022 15:00 15,9 C 11,5 C 16,0 C 19,9 C 19,9 C 4,1 C 49 % 48 % 1025,9 hPa 0,0 l/m 2,5 km/h (1 Bft) O-NO 0,75 h 5,2 C 19,9 C 3,5 km/h (1 Bft)
27.04.2022 16:00 17,2 C 11,7 C 17,7 C 23,6 C 23,6 C 6,5 C 46 % 45 % 1025,6 hPa 0,0 l/m 3,1 km/h (1 Bft) O-NO 1,00 h 5,3 C 23,6 C 5,0 km/h (1 Bft)
27.04.2022 17:00 16,0 C 11,8 C 16,6 C 18,5 C 18,5 C 2,4 C 49 % 47 % 1025,7 hPa 0,0 l/m 2,7 km/h (1 Bft) N-NW 0,25 h 5,4 C 18,5 C 3,2 km/h (1 Bft)
27.04.2022 18:00 15,6 C 12,0 C 15,4 C 18,3 C 18,3 C 2,7 C 51 % 50 % 1025,9 hPa 0,0 l/m 1,6 km/h (1 Bft) NO 0,58 h 5,4 C 18,3 C 3,0 km/h (1 Bft)
27.04.2022 19:00 14,8 C 12,0 C 13,8 C 15,2 C 15,2 C 0,4 C 52 % 56 % 1026,4 hPa 0,0 l/m 0,4 km/h (0 Bft) N 0,00 h 5,1 C 15,2 C 0,4 km/h (0 Bft)
27.04.2022 20:00 13,0 C 12,2 C 10,9 C 12,7 C 11,9 C 0,0 C 59 % 67 % 1027,1 hPa 0,0 l/m 0,0 km/h (0 Bft) N 0,00 h 5,2 C 11,9 C 0,0 km/h (0 Bft)
27.04.2022 21:00 10,2 C 12,2 C 8,1 C 9,6 C 8,4 C 0,0 C 68 % 76 % 1027,3 hPa 0,0 l/m 0,0 km/h (0 Bft) N 0,00 h 4,5 C 8,4 C 0,0 km/h (0 Bft)
27.04.2022 22:00 7,9 C 12,3 C 6,3 C 7,3 C 6,1 C 0,0 C 75 % 82 % 1027,6 hPa 0,0 l/m 0,0 km/h (0 Bft) N 0,00 h 3,8 C 6,1 C 0,0 km/h (0 Bft)
27.04.2022 23:00 6,3 C 12,2 C 4,9 C 5,7 C 4,5 C 0,0 C 79 % 85 % 1028,0 hPa 0,0 l/m 0,0 km/h (0 Bft) N 0,00 h 2,9 C 4,5 C 0,0 km/h (0 Bft)
28.04.2022 00:00 5,3 C 12,1 C 4,4 C 4,9 C 4,1 C 0,0 C 82 % 87 % 1028,5 hPa 0,0 l/m 0,0 km/h (0 Bft) N 0,00 h 2,5 C 4,1 C 0,0 km/h (0 Bft)
28.04.2022 01:00 5,0 C 12,1 C 4,2 C 4,6 C 3,9 C 0,0 C 84 % 88 % 1028,5 hPa 0,0 l/m 0,0 km/h (0 Bft) N 0,00 h 2,5 C 3,9 C 0,0 km/h (0 Bft)
28.04.2022 02:00 4,4 C 12,0 C 3,4 C 4,0 C 3,3 C 0,0 C 85 % 88 % 1028,4 hPa 0,0 l/m 0,0 km/h (0 Bft) N 0,00 h 2,2 C 3,3 C 0,0 km/h (0 Bft)
28.04.2022 03:00 4,2 C 11,9 C 3,3 C 3,8 C 3,1 C 0,0 C 86 % 89 % 1028,4 hPa 0,0 l/m 0,1 km/h (0 Bft) N 0,00 h 2,1 C 3,1 C 0,3 km/h (0 Bft)
28.04.2022 04:00 4,0 C 11,8 C 3,1 C 3,7 C 3,0 C 0,0 C 87 % 89 % 1028,2 hPa 0,0 l/m 0,1 km/h (0 Bft) N 0,00 h 2,1 C 3,0 C 0,1 km/h (0 Bft)
28.04.2022 05:00 3,8 C 11,7 C 3,2 C 3,5 C 3,0 C 0,0 C 88 % 90 % 1028,6 hPa 0,0 l/m 0,0 km/h (0 Bft) N 0,00 h 2,0 C 3,0 C 0,0 km/h (0 Bft)
28.04.2022 06:00 3,5 C 11,6 C 3,0 C 3,3 C 2,7 C 0,0 C 88 % 90 % 1029,1 hPa 0,0 l/m 0,2 km/h (0 Bft) N 0,00 h 1,7 C 2,7 C 0,3 km/h (0 Bft)
28.04.2022 07:00 4,5 C 11,3 C 6,5 C 10,1 C 10,1 C 5,6 C 88 % 89 % 1029,3 hPa 0,0 l/m 1,2 km/h (1 Bft) S 0,92 h 2,7 C 10,1 C 2,3 km/h (1 Bft)
28.04.2022 08:00 7,8 C 11,1 C 8,8 C 15,3 C 15,3 C 7,5 C 87 % 85 % 1029,7 hPa 0,0 l/m 1,3 km/h (1 Bft) S-SO 1,00 h 5,8 C 15,3 C 3,1 km/h (1 Bft)
28.04.2022 09:00 10,3 C 11,1 C 10,4 C 16,3 C 16,3 C 6,0 C 81 % 80 % 1030,1 hPa 0,0 l/m 2,5 km/h (1 Bft) S-SW 1,00 h 7,2 C 16,3 C 3,8 km/h (1 Bft)
28.04.2022 10:00 11,8 C 11,3 C 12,6 C 17,2 C 17,2 C 5,3 C 74 % 74 % 1030,4 hPa 0,0 l/m 3,2 km/h (1 Bft) SW 1,00 h 7,4 C 17,2 C 5,1 km/h (1 Bft)
28.04.2022 11:00 13,2 C 11,4 C 16,2 C 17,4 C 17,4 C 4,2 C 68 % 62 % 1030,5 hPa 0,0 l/m 2,7 km/h (1 Bft) W-SW 1,00 h 7,4 C 17,4 C 2,9 km/h (1 Bft)
28.04.2022 12:00 14,9 C 11,5 C 18,8 C 19,6 C 19,6 C 4,7 C 63 % 55 % 1030,3 hPa 0,0 l/m 4,1 km/h (1 Bft) S 1,00 h 7,9 C 19,6 C 6,2 km/h (2 Bft)
28.04.2022 13:00 16,7 C 11,7 C 21,6 C 22,4 C 22,4 C 5,7 C 57 % 47 % 1030,3 hPa 0,0 l/m 4,3 km/h (1 Bft) W-SW 1,00 h 8,1 C 22,4 C 5,2 km/h (1 Bft)
28.04.2022 14:00 17,5 C 11,8 C 22,0 C 22,8 C 22,8 C 5,3 C 53 % 44 % 1030,1 hPa 0,0 l/m 4,2 km/h (1 Bft) SW 1,00 h 7,9 C 22,8 C 6,2 km/h (2 Bft)
28.04.2022 15:00 17,7 C 12,1 C 19,8 C 22,3 C 22,3 C 4,6 C 51 % 47 % 1029,7 hPa 0,0 l/m 5,4 km/h (1 Bft) SW 1,00 h 7,4 C 22,3 C 6,4 km/h (2 Bft)
28.04.2022 16:00 18,0 C 12,3 C 19,2 C 23,8 C 23,8 C 5,8 C 48 % 46 % 1029,3 hPa 0,0 l/m 4,4 km/h (1 Bft) SW 1,00 h 6,9 C 23,8 C 5,4 km/h (1 Bft)
28.04.2022 17:00 18,1 C 12,5 C 18,9 C 22,1 C 22,1 C 4,0 C 46 % 44 % 1029,5 hPa 0,0 l/m 2,7 km/h (1 Bft) W-SW 1,00 h 6,3 C 22,1 C 3,2 km/h (1 Bft)
28.04.2022 18:00 17,6 C 12,7 C 16,6 C 20,3 C 20,3 C 2,7 C 46 % 47 % 1029,6 hPa 0,0 l/m 2,7 km/h (1 Bft) O-NO 0,25 h 5,8 C 20,3 C 3,9 km/h (1 Bft)
28.04.2022 19:00 16,1 C 12,9 C 14,8 C 18,1 C 18,1 C 1,9 C 48 % 50 % 1029,8 hPa 0,0 l/m 1,6 km/h (1 Bft) N-NO 0,92 h 5,0 C 18,1 C 1,5 km/h (1 Bft)
28.04.2022 20:00 13,6 C 12,9 C 11,6 C 13,3 C 12,5 C 0,0 C 55 % 60 % 1030,1 hPa 0,0 l/m 0,1 km/h (0 Bft) N 0,00 h 4,6 C 12,5 C 0,2 km/h (0 Bft)
28.04.2022 21:00 10,6 C 13,0 C 8,5 C 9,9 C 8,6 C 0,0 C 64 % 71 % 1030,4 hPa 0,0 l/m 0,0 km/h (0 Bft) N 0,00 h 4,1 C 8,6 C 0,0 km/h (0 Bft)
28.04.2022 22:00 8,3 C 13,0 C 6,7 C 7,6 C 6,3 C 0,0 C 72 % 78 % 1030,7 hPa 0,0 l/m 0,0 km/h (0 Bft) N 0,00 h 3,5 C 6,3 C 0,0 km/h (0 Bft)
28.04.2022 23:00 6,6 C 12,9 C 5,4 C 6,1 C 4,9 C 0,0 C 77 % 83 % 1030,9 hPa 0,0 l/m 0,0 km/h (0 Bft) N 0,00 h 2,9 C 4,9 C 0,0 km/h (0 Bft)
29.04.2022 00:00 5,5 C 12,8 C 4,5 C 5,0 C 4,0 C 0,0 C 81 % 85 % 1031,3 hPa 0,0 l/m 0,0 km/h (0 Bft) N 0,00 h 2,5 C 4,0 C 0,0 km/h (0 Bft)
29.04.2022 01:00 4,7 C 12,8 C 3,6 C 4,2 C 3,1 C 0,0 C 83 % 87 % 1031,0 hPa 0,0 l/m 0,0 km/h (0 Bft) N 0,00 h 2,0 C 3,1 C 0,0 km/h (0 Bft)
29.04.2022 02:00 4,1 C 12,7 C 3,4 C 3,7 C 2,9 C 0,0 C 85 % 87 % 1031,3 hPa 0,0 l/m 0,0 km/h (0 Bft) N 0,00 h 1,7 C 2,9 C 0,0 km/h (0 Bft)
29.04.2022 03:00 3,8 C 12,6 C 3,1 C 3,5 C 2,7 C 0,0 C 86 % 88 % 1031,1 hPa 0,0 l/m 0,0 km/h (0 Bft) N 0,00 h 1,6 C 2,7 C 0,0 km/h (0 Bft)
29.04.2022 04:00 3,4 C 12,5 C 2,6 C 2,9 C 2,1 C 0,0 C 86 % 89 % 1030,6 hPa 0,0 l/m 0,0 km/h (0 Bft) N 0,00 h 1,3 C 2,1 C 0,0 km/h (0 Bft)
29.04.2022 05:00 3,2 C 12,4 C 2,5 C 2,8 C 2,1 C 0,0 C 87 % 89 % 1030,3 hPa 0,0 l/m 0,1 km/h (0 Bft) N 0,00 h 1,2 C 2,1 C 0,2 km/h (0 Bft)
29.04.2022 06:00 3,0 C 12,2 C 2,6 C 2,8 C 2,4 C 0,0 C 88 % 89 % 1030,5 hPa 0,0 l/m 0,0 km/h (0 Bft) N 0,00 h 1,1 C 2,4 C 0,0 km/h (0 Bft)
29.04.2022 07:00 3,8 C 11,9 C 5,2 C 9,1 C 9,1 C 5,2 C 88 % 89 % 1030,9 hPa 0,0 l/m 0,1 km/h (0 Bft) N 0,75 h 2,0 C 9,1 C 0,1 km/h (0 Bft)
29.04.2022 08:00 6,3 C 11,6 C 7,9 C 14,1 C 14,1 C 7,9 C 88 % 86 % 1031,0 hPa 0,0 l/m 0,4 km/h (0 Bft) S-SW 1,00 h 4,4 C 14,1 C 0,6 km/h (0 Bft)
29.04.2022 09:00 10,6 C 11,6 C 11,3 C 18,7 C 18,7 C 8,1 C 82 % 80 % 1031,2 hPa 0,0 l/m 0,5 km/h (0 Bft) N 1,00 h 7,7 C 18,7 C 0,8 km/h (0 Bft)
29.04.2022 10:00 13,7 C 11,6 C 14,6 C 19,2 C 19,2 C 5,5 C 67 % 65 % 1031,0 hPa 0,0 l/m 1,5 km/h (1 Bft) NO 0,92 h 7,7 C 19,2 C 2,9 km/h (1 Bft)
29.04.2022 11:00 14,6 C 11,8 C 16,6 C 18,2 C 18,2 C 3,6 C 59 % 55 % 1030,6 hPa 0,0 l/m 2,5 km/h (1 Bft) NO 0,83 h 6,7 C 18,2 C 3,8 km/h (1 Bft)
29.04.2022 12:00 15,7 C 11,9 C 18,1 C 20,4 C 20,4 C 4,7 C 55 % 51 % 1030,3 hPa 0,0 l/m 1,9 km/h (1 Bft) O-NO 1,00 h 6,7 C 20,4 C 3,3 km/h (1 Bft)
29.04.2022 13:00 16,3 C 12,1 C 19,8 C 21,7 C 21,7 C 5,3 C 50 % 43 % 1029,6 hPa 0,0 l/m 3,9 km/h (1 Bft) O-NO 1,00 h 5,8 C 21,7 C 5,2 km/h (1 Bft)
29.04.2022 14:00 16,3 C 12,3 C 18,4 C 20,3 C 20,3 C 4,0 C 49 % 45 % 1029,3 hPa 0,0 l/m 3,0 km/h (1 Bft) O-NO 1,00 h 5,6 C 20,3 C 3,3 km/h (1 Bft)
29.04.2022 15:00 16,4 C 12,5 C 17,9 C 20,4 C 20,4 C 4,0 C 49 % 46 % 1028,6 hPa 0,0 l/m 2,8 km/h (1 Bft) O-NO 1,00 h 5,7 C 20,4 C 3,1 km/h (1 Bft)
29.04.2022 16:00 16,7 C 12,7 C 17,2 C 20,6 C 20,6 C 3,9 C 48 % 47 % 1028,4 hPa 0,0 l/m 2,2 km/h (1 Bft) O-NO 0,67 h 5,7 C 20,6 C 3,2 km/h (1 Bft)
29.04.2022 17:00 16,3 C 12,8 C 16,5 C 18,7 C 18,7 C 2,4 C 49 % 48 % 1027,8 hPa 0,0 l/m 1,2 km/h (1 Bft) O-NO 0,08 h 5,5 C 18,7 C 1,6 km/h (1 Bft)
29.04.2022 18:00 16,3 C 12,9 C 16,4 C 19,2 C 19,2 C 2,9 C 48 % 48 % 1027,2 hPa 0,0 l/m 1,8 km/h (1 Bft) O-NO 0,58 h 5,2 C 19,2 C 1,7 km/h (1 Bft)
29.04.2022 19:00 15,4 C 13,0 C 14,0 C 15,8 C 15,6 C 0,4 C 50 % 55 % 1026,7 hPa 0,0 l/m 0,1 km/h (0 Bft) N 0,00 h 5,1 C 15,6 C 0,3 km/h (0 Bft)
29.04.2022 20:00 13,1 C 13,1 C 11,0 C 12,6 C 11,7 C 0,0 C 59 % 67 % 1026,8 hPa 0,0 l/m 0,1 km/h (0 Bft) N 0,00 h 5,3 C 11,7 C 0,1 km/h (0 Bft)
29.04.2022 21:00 10,6 C 13,1 C 8,8 C 10,1 C 9,0 C 0,0 C 68 % 75 % 1026,9 hPa 0,0 l/m 0,0 km/h (0 Bft) N 0,00 h 4,8 C 9,0 C 0,0 km/h (0 Bft)
29.04.2022 22:00 9,0 C 13,1 C 7,6 C 8,5 C 7,6 C 0,0 C 75 % 80 % 1027,1 hPa 0,0 l/m 0,0 km/h (0 Bft) N 0,00 h 4,7 C 7,6 C 0,0 km/h (0 Bft)
29.04.2022 23:00 8,0 C 13,1 C 6,9 C 7,6 C 6,8 C 0,0 C 79 % 83 % 1026,9 hPa 0,0 l/m 0,0 km/h (0 Bft) N 0,00 h 4,5 C 6,8 C 0,0 km/h (0 Bft)
30.04.2022 00:00 7,1 C 13,0 C 6,1 C 6,7 C 6,0 C 0,0 C 81 % 85 % 1026,6 hPa 0,0 l/m 0,0 km/h (0 Bft) N 0,00 h 4,1 C 6,0 C 0,0 km/h (0 Bft)
30.04.2022 01:00 6,7 C 12,9 C 5,9 C 6,4 C 5,9 C 0,0 C 84 % 87 % 1026,3 hPa 0,0 l/m 0,0 km/h (0 Bft) N 0,00 h 4,1 C 5,9 C 0,0 km/h (0 Bft)
30.04.2022 02:00 6,3 C 12,8 C 5,8 C 6,2 C 5,8 C 0,0 C 85 % 87 % 1025,9 hPa 0,0 l/m 0,0 km/h (0 Bft) N 0,00 h 4,0 C 5,8 C 0,0 km/h (0 Bft)
30.04.2022 03:00 6,1 C 12,7 C 5,5 C 6,0 C 5,6 C 0,0 C 86 % 88 % 1025,5 hPa 0,0 l/m 0,0 km/h (0 Bft) N 0,00 h 3,9 C 5,6 C 0,0 km/h (0 Bft)
30.04.2022 04:00 5,9 C 12,7 C 5,1 C 5,7 C 5,2 C 0,0 C 86 % 89 % 1024,9 hPa 0,0 l/m 0,0 km/h (0 Bft) N 0,00 h 3,8 C 5,2 C 0,0 km/h (0 Bft)
30.04.2022 05:00 5,7 C 12,7 C 5,1 C 5,5 C 5,1 C 0,0 C 87 % 89 % 1024,9 hPa 0,0 l/m 0,2 km/h (0 Bft) N 0,00 h 3,7 C 5,1 C 1,1 km/h (1 Bft)
30.04.2022 06:00 5,7 C 12,6 C 5,3 C 5,6 C 5,4 C 0,0 C 88 % 89 % 1025,0 hPa 0,0 l/m 0,3 km/h (0 Bft) N 0,00 h 3,8 C 5,4 C 0,3 km/h (0 Bft)
30.04.2022 07:00 6,1 C 12,3 C 6,0 C 6,4 C 6,4 C 0,3 C 88 % 89 % 1025,1 hPa 0,0 l/m 0,2 km/h (0 Bft) N 0,00 h 4,3 C 6,4 C 0,5 km/h (0 Bft)
30.04.2022 08:00 7,4 C 12,1 C 8,1 C 9,5 C 9,5 C 2,0 C 88 % 88 % 1025,5 hPa 0,0 l/m 0,7 km/h (0 Bft) W-SW 0,00 h 5,6 C 9,5 C 2,2 km/h (1 Bft)
30.04.2022 09:00 9,1 C 12,1 C 10,4 C 11,8 C 11,8 C 2,7 C 86 % 83 % 1025,7 hPa 0,0 l/m 1,9 km/h (1 Bft) W-SW 0,08 h 6,8 C 11,8 C 2,7 km/h (1 Bft)
30.04.2022 10:00 10,3 C 12,0 C 12,5 C 14,5 C 14,5 C 4,1 C 82 % 78 % 1025,7 hPa 0,0 l/m 3,2 km/h (1 Bft) S 1,00 h 7,4 C 14,5 C 4,4 km/h (1 Bft)
30.04.2022 11:00 12,1 C 12,0 C 16,0 C 16,3 C 16,3 C 4,2 C 77 % 68 % 1025,5 hPa 0,0 l/m 3,8 km/h (1 Bft) SW 1,00 h 8,2 C 16,3 C 4,4 km/h (1 Bft)
30.04.2022 12:00 14,5 C 12,1 C 18,8 C 19,6 C 19,6 C 5,1 C 71 % 61 % 1024,9 hPa 0,0 l/m 3,6 km/h (1 Bft) W-SW 1,00 h 9,3 C 19,6 C 4,9 km/h (1 Bft)
30.04.2022 13:00 16,8 C 12,3 C 20,7 C 22,6 C 22,6 C 5,8 C 61 % 50 % 1024,3 hPa 0,0 l/m 3,4 km/h (1 Bft) O-NO 1,00 h 9,3 C 22,6 C 4,8 km/h (1 Bft)
30.04.2022 14:00 17,8 C 12,5 C 22,0 C 23,6 C 23,6 C 5,8 C 56 % 45 % 1023,8 hPa 0,0 l/m 3,5 km/h (1 Bft) O-NO 1,00 h 8,8 C 23,6 C 4,2 km/h (1 Bft)
30.04.2022 15:00 18,5 C 12,7 C 19,4 C 23,9 C 23,9 C 5,4 C 49 % 46 % 1023,2 hPa 0,0 l/m 3,2 km/h (1 Bft) O-NO 1,00 h 7,7 C 23,9 C 4,4 km/h (1 Bft)
30.04.2022 16:00 18,5 C 13,0 C 19,5 C 24,0 C 24,0 C 5,5 C 48 % 44 % 1022,9 hPa 0,0 l/m 3,2 km/h (1 Bft) O-NO 1,00 h 7,2 C 24,0 C 4,4 km/h (1 Bft)
30.04.2022 17:00 18,0 C 13,2 C 18,5 C 20,9 C 20,9 C 2,9 C 47 % 44 % 1022,8 hPa 0,0 l/m 2,4 km/h (1 Bft) O-NO 0,25 h 6,5 C 20,9 C 2,8 km/h (1 Bft)
30.04.2022 18:00 17,5 C 13,3 C 17,4 C 19,3 C 19,3 C 1,8 C 47 % 45 % 1022,5 hPa 0,0 l/m 2,6 km/h (1 Bft) O-NO 0,00 h 6,1 C 19,3 C 3,1 km/h (1 Bft)
30.04.2022 19:00 17,1 C 13,5 C 16,6 C 18,2 C 18,2 C 1,1 C 49 % 49 % 1022,6 hPa 0,0 l/m 0,6 km/h (0 Bft) N-NO 0,08 h 6,2 C 18,2 C 0,7 km/h (0 Bft)
30.04.2022 20:00 15,6 C 13,6 C 13,9 C 15,5 C 15,0 C 0,1 C 53 % 59 % 1022,7 hPa 0,0 l/m 0,0 km/h (0 Bft) N 0,08 h 6,1 C 15,0 C 0,0 km/h (0 Bft)
30.04.2022 21:00 13,4 C 13,7 C 11,4 C 13,0 C 12,4 C 0,0 C 60 % 68 % 1023,1 hPa 0,0 l/m 0,0 km/h (0 Bft) N 0,00 h 5,9 C 12,4 C 0,0 km/h (0 Bft)
30.04.2022 22:00 11,9 C 13,7 C 10,1 C 11,6 C 11,0 C 0,0 C 68 % 74 % 1023,3 hPa 0,0 l/m 0,0 km/h (0 Bft) N 0,00 h 6,1 C 11,0 C 0,0 km/h (0 Bft)
30.04.2022 23:00 10,5 C 13,7 C 9,0 C 10,1 C 9,4 C 0,0 C 73 % 78 % 1023,4 hPa 0,0 l/m 0,0 km/h (0 Bft) N 0,00 h 5,8 C 9,4 C 0,0 km/h (0 Bft)
01.05.2022 00:00 8,9 C 13,7 C 7,4 C 8,4 C 7,4 C 0,0 C 77 % 82 % 1023,4 hPa 0,0 l/m 0,1 km/h (0 Bft) N 0,00 h 5,0 C 7,4 C 0,1 km/h (0 Bft)
01.05.2022 01:00 7,9 C 13,5 C 6,5 C 7,5 C 6,7 C 0,0 C 80 % 84 % 1023,4 hPa 0,0 l/m 0,4 km/h (0 Bft) SW 0,00 h 4,6 C 6,7 C 0,6 km/h (0 Bft)
01.05.2022 02:00 7,4 C 13,4 C 5,7 C 6,9 C 6,1 C 0,0 C 81 % 86 % 1023,4 hPa 0,0 l/m 0,3 km/h (0 Bft) S-SO 0,00 h 4,4 C 6,1 C 0,5 km/h (0 Bft)
01.05.2022 03:00 6,5 C 13,4 C 4,9 C 6,0 C 5,2 C 0,0 C 83 % 87 % 1023,5 hPa 0,0 l/m 0,1 km/h (0 Bft) N 0,00 h 3,8 C 5,2 C 0,0 km/h (0 Bft)
01.05.2022 04:00 5,5 C 13,3 C 4,1 C 5,0 C 4,1 C 0,0 C 84 % 88 % 1023,3 hPa 0,0 l/m 0,0 km/h (0 Bft) N 0,00 h 3,1 C 4,1 C 0,0 km/h (0 Bft)
01.05.2022 05:00 4,6 C 13,2 C 3,4 C 4,1 C 3,2 C 0,0 C 86 % 89 % 1023,6 hPa 0,0 l/m 0,0 km/h (0 Bft) N 0,00 h 2,4 C 3,2 C 0,0 km/h (0 Bft)
01.05.2022 06:00 4,3 C 13,0 C 3,8 C 4,2 C 3,7 C 0,1 C 87 % 89 % 1023,7 hPa 0,0 l/m 0,0 km/h (0 Bft) N 0,00 h 2,3 C 3,7 C 0,0 km/h (0 Bft)
01.05.2022 07:00 5,7 C 12,7 C 7,1 C 11,4 C 11,4 C 5,7 C 88 % 88 % 1024,2 hPa 0,0 l/m 0,1 km/h (0 Bft) N 0,75 h 3,9 C 11,4 C 0,0 km/h (0 Bft)
01.05.2022 08:00 8,6 C 12,6 C 9,3 C 17,5 C 17,5 C 8,9 C 86 % 84 % 1024,4 hPa 0,0 l/m 1,3 km/h (1 Bft) S 1,00 h 6,4 C 17,5 C 2,6 km/h (1 Bft)
01.05.2022 09:00 10,8 C 12,5 C 10,8 C 16,7 C 16,7 C 5,9 C 80 % 80 % 1024,3 hPa 0,0 l/m 2,6 km/h (1 Bft) SW 1,00 h 7,4 C 16,7 C 4,0 km/h (1 Bft)
01.05.2022 10:00 12,1 C 12,6 C 12,5 C 17,2 C 17,2 C 5,1 C 76 % 76 % 1024,2 hPa 0,0 l/m 3,1 km/h (1 Bft) SW 1,00 h 7,9 C 17,2 C 4,2 km/h (1 Bft)
01.05.2022 11:00 13,5 C 12,7 C 17,1 C 16,8 C 16,8 C 3,3 C 72 % 65 % 1024,0 hPa 0,0 l/m 3,9 km/h (1 Bft) S-SW 0,33 h 8,5 C 16,8 C 5,9 km/h (2 Bft)
01.05.2022 12:00 16,1 C 12,8 C 19,4 C 20,8 C 20,8 C 4,7 C 65 % 55 % 1023,7 hPa 0,0 l/m 2,4 km/h (1 Bft) O-NO 0,83 h 9,4 C 20,8 C 3,8 km/h (1 Bft)
01.05.2022 13:00 17,4 C 12,9 C 20,9 C 23,0 C 23,0 C 5,5 C 56 % 47 % 1023,3 hPa 0,0 l/m 3,4 km/h (1 Bft) O-NO 1,00 h 8,6 C 23,0 C 4,5 km/h (1 Bft)
01.05.2022 14:00 18,2 C 13,1 C 22,6 C 24,4 C 24,4 C 6,2 C 51 % 41 % 1022,8 hPa 0,0 l/m 3,3 km/h (1 Bft) O-NO 1,00 h 7,9 C 24,4 C 5,4 km/h (1 Bft)
01.05.2022 15:00 18,7 C 13,4 C 20,3 C 24,1 C 24,1 C 5,4 C 47 % 42 % 1022,5 hPa 0,0 l/m 2,9 km/h (1 Bft) O-NO 1,00 h 7,1 C 24,1 C 2,9 km/h (1 Bft)
01.05.2022 16:00 18,4 C 13,6 C 19,0 C 22,4 C 22,4 C 4,1 C 45 % 43 % 1022,1 hPa 0,0 l/m 3,6 km/h (1 Bft) O-NO 0,67 h 6,2 C 22,4 C 4,5 km/h (1 Bft)
01.05.2022 17:00 17,8 C 13,8 C 18,0 C 19,5 C 19,5 C 1,7 C 48 % 46 % 1021,9 hPa 0,0 l/m 1,3 km/h (1 Bft) NO 0,00 h 6,5 C 19,5 C 1,8 km/h (1 Bft)
01.05.2022 18:00 17,7 C 13,9 C 17,4 C 18,6 C 18,6 C 0,9 C 49 % 48 % 1021,8 hPa 0,0 l/m 0,5 km/h (0 Bft) N 0,00 h 6,7 C 18,6 C 0,6 km/h (0 Bft)
01.05.2022 19:00 16,5 C 14,1 C 15,4 C 16,5 C 16,3 C 0,2 C 51 % 54 % 1021,7 hPa 0,0 l/m 0,2 km/h (0 Bft) N 0,00 h 6,4 C 16,3 C 0,1 km/h (0 Bft)
01.05.2022 20:00 14,1 C 14,1 C 12,2 C 13,7 C 13,0 C 0,0 C 60 % 66 % 1021,8 hPa 0,0 l/m 0,1 km/h (0 Bft) N 0,00 h 6,3 C 13,0 C 0,3 km/h (0 Bft)
01.05.2022 21:00 12,8 C 14,2 C 11,4 C 12,6 C 12,3 C 0,0 C 66 % 72 % 1022,4 hPa 0,0 l/m 0,7 km/h (0 Bft) O-NO 0,00 h 6,6 C 12,3 C 1,1 km/h (0 Bft)
01.05.2022 22:00 12,3 C 14,1 C 11,7 C 12,2 C 12,0 C 0,0 C 68 % 70 % 1022,9 hPa 0,0 l/m 1,7 km/h (1 Bft) NO 0,00 h 6,5 C 12,0 C 2,2 km/h (1 Bft)
01.05.2022 23:00 11,6 C 14,0 C 11,0 C 11,5 C 11,3 C 0,0 C 68 % 70 % 1022,9 hPa 0,0 l/m 0,8 km/h (0 Bft) NO 0,00 h 5,8 C 11,3 C 1,2 km/h (1 Bft)
Min-Datum _ 26.04.22 26.04.22 26.04.22 26.04.22 26.04.22 25.04.22 27.04.22 01.05.22 25.04.22 - 25.04.22 - - 26.04.22 26.04.22 25.04.22
_ Min-Zeit 06:10 09:15 06:05 06:05 06:05 00:00 16:35 14:25 00:05 - 00:00 - - 06:10 06:05 00:00
Minimum _ 0,2 C 10,0 C -0,4 C -0,3 C -1,4 C 0,0 C 43 % 39 % 1007,4 hPa - 0,0 km/h (0 Bft) - - -1,4 C -1,4 C 0,0 km/h (0 Bft)
Max-Datum _ 01.05.22 01.05.22 28.04.22 01.05.22 01.05.22 26.04.22 25.04.22 26.04.22 29.04.22 25.04.22 26.04.22 - 25.04.22 30.04.22 01.05.22 26.04.22
_ Max-Zeit 15:55 21:15 14:00 15:55 15:55 08:45 07:35 04:25 00:45 04:10 15:15 - 06:10 13:00 15:55 14:45
Maximum _ 19,3 C 14,2 C 23,5 C 26,1 C 26,1 C 13,6 C 89 % 91 % 1031,6 hPa 1,4 l/m 8,2 km/h
O-NO (2 Bft)
- 0,08 h 10,2 C 26,1 C 16,4 km/h
O-NO (3 Bft)
Durchschnitt _ 10,1 C 12,1 C 10,4 C 12,2 C 11,9 C 2,2 C 73 % 73 % 1023,1 hPa #2,7 l/m 1,4 km/h (1 Bft) O-NO #61:15 h 5,1 C 11,9 C 1,9 km/h (1 Bft)
2022 www.wetterstation-wechselburg.de